Burwell, NE (68823)

9:17 AM CDT on July 12, 2014 (GMT -0500)
Sharp (KODX) Elev 2070 ft | 41.62 °N, 98.95 °W | Change Station

Current weather conditions updated 12 minutes ago

Mostly Cloudy
Mostly Cloudy
70 °F
Feels Like 70 °F
N
7
Wind Variable Wind from North

Today is forecast to be nearly the same temperature as yesterday. Morning thunderstorms.

Today
High -- | Low -- °F
--% Chance of Precip.
Yesterday
High -- | Low -- °F
Precip. -- in
6:12 AM 9:11 PM
Full, 100% visible
Pressure 30.04 in
Visibility 10.0 miles
Clouds Mostly Cloudy 1400 ft
Dew Point 66 °F
Humidity 87%
Rainfall 0.22 in
Snow Depth Not available.
UV 2 out of 12
Pollen 4.60 out of 12
Air Quality Not available.
Flu Activity Sporadic
SPECI KODX 121405Z AUTO 36006KT 10SM BKN014 21/19 A3004 RMK AO2 T02110189

More Conditions Fewer Conditions

Pressure 30.04 in
Visibility 10.0 miles
Clouds Mostly Cloudy 1400 ft
Dew Point 66 °F
Humidity 87%
Rainfall 0.22 in
Snow Depth Not available.
UV 2 out of 12
Pollen 4.60 out of 12
Air Quality Not available.
Flu Activity Sporadic
SPECI KODX 121405Z AUTO 36006KT 10SM BKN014 21/19 A3004 RMK AO2 T02110189

More Conditions Fewer Conditions

10-Day Weather Forecast

Almanac

Astronomy

Jul. 12, 2014 Rise Set
Actual Time 6:12 AM CDT 9:11 PM CDT
Civil Twilight 5:39 AM CDT 9:44 PM CDT
Nautical Twilight 4:56 AM CDT 10:27 PM CDT
Astronomical Twilight 4:06 AM CDT 11:16 PM CDT
Moon 9:12 PM CDT 6:35 AM CDT
Length of Visible Light 16h 05m
Length of Day
14h 58m
Tomorrow will be 1m 19s shorter.
Full, 100% of the Moon is Illuminated
Today
Full
Jul 18
Last Quarter
Jul 26
New
Aug 3
First Quarter
Aug 10
Full

Today's Extremes

State Highs State Lows

Community

WunderPhotos

Upload Photos

1,732,839 photos uploaded!

WunderBlogs® & News

Nearby

Snow Depth

Station Depth Elevation
No new snow has been reported.

Earthquake Activity

City Distance Mag. Time & Date
No recent earthquake activity has been reported nearby.
Minimum magnitude displayed is 2.5.

Coastal Water Temperatures

Place Temperature
No Stations Reporting

Nearby Weather Stations

Station Location Temp. Dew Point Humidity Wind Precip. Elev Updated Type
Sargent, Sargent, NE 69.5 °F 68 °F 93% ENE  at  2.0 mph 0.00 in / hr 2314 ft 9:06 AM CDT Normal

Show More Stations Show Fewer Stations